This is the latest recevied weather packets stored in our database for station/object KK4KTV-13. If no packets are shown the sender has not sent any weather packets the latest 10 day(s).
| Time | Temp. | Humidity | Pressure | Rain* | Wind** | Luminosity | Snow |
|---|---|---|---|---|---|---|---|
| 1777722370 | 4.44° C | 99% | 1016.2 hPa | 0 mm | - | 63 W/m² | - |
| 1777722068 | 3.89° C | 99% | 1016.4 hPa | 0 mm | - | 49 W/m² | - |
| 1777721765 | 3.89° C | 99% | 1016.2 hPa | 0 mm | - | 51 W/m² | - |
| 1777721463 | 3.33° C | 99% | 1015.9 hPa | 0 mm | - | 39 W/m² | - |
| 1777721161 | 3.33° C | 99% | 1016 hPa | 0 mm | - | 34 W/m² | - |
| 1777720858 | 2.78° C | 99% | 1016 hPa | 0 mm | - | 36 W/m² | - |
| 1777720555 | 2.78° C | 99% | 1015.9 hPa | 0 mm | - | 35 W/m² | - |
| 1777720253 | 2.22° C | 99% | 1015.7 hPa | 0 mm | - | 28 W/m² | - |
| 1777719950 | 2.22° C | 99% | 1015.9 hPa | 0 mm | - | 19 W/m² | - |
| 1777719648 | 2.22° C | 99% | 1015.7 hPa | 0 mm | - | 12 W/m² | - |
| 1777719345 | 2.22° C | 99% | 1015.8 hPa | 0 mm | - | 9 W/m² | - |
| 1777719042 | 2.22° C | 99% | 1015.9 hPa | 0 mm | - | 5 W/m² | - |
| 1777718739 | 2.22° C | 99% | 1015.6 hPa | 0 mm | - | 3 W/m² | - |
| 1777718437 | 2.22° C | 99% | 1015.6 hPa | 0 mm | - | 2 W/m² | - |
| 1777718134 | 2.22° C | 99% | 1015.5 hPa | 0 mm | - | 1 W/m² | - |
| 1777717832 | 2.22° C | 99% | 1015.5 hPa | 0 mm | - | 0 W/m² | - |
| 1777717528 | 2.78° C | 99% | 1015.5 hPa | 0 mm | - | 0 W/m² | - |
| 1777717226 | 2.78° C | 99% | 1015.6 hPa | 0 mm | - | 0 W/m² | - |
| 1777716923 | 2.78° C | 98% | 1015.4 hPa | 0 mm | - | 0 W/m² | - |
| 1777716622 | 2.78° C | 98% | 1015.4 hPa | 0 mm | - | 0 W/m² | - |
| 1777716320 | 2.78° C | 98% | 1015.5 hPa | 0 mm | - | 0 W/m² | - |
| 1777716017 | 2.78° C | 98% | 1015.3 hPa | 0 mm | - | 0 W/m² | - |
| 1777715715 | 2.78° C | 98% | 1015.2 hPa | 0 mm | - | 0 W/m² | - |
| 1777715413 | 3.33° C | 98% | 1015.1 hPa | 0 mm | - | 0 W/m² | - |
| 1777715109 | 3.33° C | 98% | 1014.9 hPa | 0 mm | - | 0 W/m² | - |
* Rain latest hour (hover to see other rain measurements)
** Current wind speed in m/s (hover to see current wind gust speed)